createdAt,value
2018-05-31T00:01:05.664Z,6.70
2018-05-31T00:03:33.128Z,6.47
2018-05-31T00:06:00.953Z,7.40
2018-05-31T00:08:28.408Z,6.40
2018-05-31T00:10:55.871Z,6.40
2018-05-31T00:13:23.361Z,6.83
2018-05-31T00:15:50.824Z,6.67
2018-05-31T00:18:18.493Z,6.10
2018-05-31T00:20:45.956Z,7.07
2018-05-31T00:23:13.411Z,6.20
2018-05-31T00:25:40.917Z,6.60
2018-05-31T00:28:08.407Z,4.13
2018-05-31T00:30:36.003Z,3.97
2018-05-31T00:33:03.468Z,3.37
2018-05-31T00:35:30.939Z,2.73
2018-05-31T00:37:58.425Z,2.83
2018-05-31T00:40:25.891Z,2.90
2018-05-31T00:42:53.395Z,3.13
2018-05-31T00:45:20.849Z,2.57
2018-05-31T00:47:48.308Z,2.50
2018-05-31T00:50:15.787Z,2.40
2018-05-31T00:52:43.251Z,2.00
2018-05-31T00:55:10.907Z,1.73
2018-05-31T00:57:38.368Z,1.70
2018-05-31T01:00:05.840Z,2.30
2018-05-31T01:02:33.320Z,1.60
2018-05-31T01:05:00.772Z,2.10
2018-05-31T01:07:28.460Z,1.83
2018-05-31T01:09:55.922Z,1.70
2018-05-31T01:12:23.456Z,1.77
2018-05-31T01:14:50.940Z,1.77
2018-05-31T01:17:18.404Z,1.63
2018-05-31T01:19:45.899Z,2.03
2018-05-31T01:22:13.371Z,1.77
2018-05-31T01:24:40.851Z,1.73
2018-05-31T01:27:08.361Z,1.73
2018-05-31T01:29:35.824Z,1.60
2018-05-31T01:32:03.359Z,1.43
2018-05-31T01:34:30.772Z,1.63
2018-05-31T01:36:58.239Z,2.77
2018-05-31T01:39:25.720Z,2.10
2018-05-31T01:41:53.179Z,2.03
2018-05-31T01:44:20.679Z,2.07
2018-05-31T01:46:48.161Z,1.53
2018-05-31T01:49:15.780Z,1.53
2018-05-31T01:51:43.239Z,2.30
2018-05-31T01:54:10.704Z,1.90
2018-05-31T01:56:38.179Z,2.00
2018-05-31T01:59:05.655Z,1.43
2018-05-31T02:01:33.310Z,1.77
2018-05-31T02:04:00.795Z,2.10
2018-05-31T02:06:28.256Z,2.10
2018-05-31T02:08:55.756Z,2.43
2018-05-31T02:11:23.216Z,1.67
2018-05-31T02:13:50.864Z,2.03
2018-05-31T02:16:18.317Z,2.10
2018-05-31T02:18:45.788Z,1.37
2018-05-31T02:21:13.288Z,2.60
2018-05-31T02:23:40.748Z,2.00
2018-05-31T02:26:08.391Z,2.03
2018-05-31T02:28:35.871Z,1.60
2018-05-31T02:31:03.335Z,2.00
2018-05-31T02:33:30.816Z,1.70
2018-05-31T02:35:58.280Z,1.70
2018-05-31T02:38:25.769Z,2.27
2018-05-31T02:40:53.243Z,1.80
2018-05-31T02:43:20.692Z,1.63
2018-05-31T02:45:48.171Z,2.27
2018-05-31T02:48:15.631Z,1.57
2018-05-31T02:50:43.313Z,1.77
2018-05-31T02:53:10.763Z,1.30
2018-05-31T02:55:38.227Z,1.63
2018-05-31T02:58:05.716Z,2.13
2018-05-31T03:00:33.180Z,1.50
2018-05-31T03:03:00.968Z,1.70
2018-05-31T03:05:28.432Z,1.60
2018-05-31T03:07:55.912Z,2.00
2018-05-31T03:10:23.391Z,1.77
2018-05-31T03:12:50.859Z,2.07
2018-05-31T03:15:18.644Z,1.80
2018-05-31T03:17:46.107Z,1.30
2018-05-31T03:20:13.603Z,2.43
2018-05-31T03:22:41.085Z,2.40
2018-05-31T03:25:08.562Z,1.80
2018-05-31T03:27:36.485Z,2.07
2018-05-31T03:30:03.940Z,1.97
2018-05-31T03:32:31.419Z,1.20
2018-05-31T03:34:58.914Z,1.83
2018-05-31T03:37:28.211Z,1.40
2018-05-31T03:39:55.890Z,1.60
2018-05-31T03:42:23.371Z,1.90
2018-05-31T03:44:50.828Z,1.80
2018-05-31T03:47:18.333Z,2.23
2018-05-31T03:49:45.838Z,1.70
2018-05-31T03:52:13.459Z,1.40
2018-05-31T03:54:40.963Z,2.20
2018-05-31T03:57:08.431Z,2.60
2018-05-31T03:59:35.912Z,2.63
2018-05-31T04:02:03.382Z,2.20
2018-05-31T04:04:31.095Z,1.73
2018-05-31T04:06:58.551Z,2.27
2018-05-31T04:09:26.863Z,2.93
2018-05-31T04:11:54.371Z,1.97
2018-05-31T04:14:21.835Z,2.03
2018-05-31T04:16:49.571Z,2.10
2018-05-31T04:19:17.032Z,1.40
2018-05-31T04:21:44.486Z,2.03
2018-05-31T04:24:11.975Z,1.67
2018-05-31T04:26:39.439Z,1.60
2018-05-31T04:29:07.312Z,2.47
2018-05-31T04:31:34.767Z,2.37
2018-05-31T04:34:02.224Z,2.80
2018-05-31T04:36:29.727Z,2.10
2018-05-31T04:38:57.203Z,2.93
2018-05-31T04:41:24.897Z,2.40
2018-05-31T04:43:52.356Z,2.00
2018-05-31T04:46:19.818Z,2.23
2018-05-31T04:48:47.315Z,2.47
2018-05-31T04:51:14.798Z,2.70
2018-05-31T04:53:42.428Z,2.60
2018-05-31T04:56:09.883Z,2.10
2018-05-31T04:58:37.356Z,2.03
2018-05-31T05:01:04.827Z,2.90
2018-05-31T05:03:32.305Z,2.40
2018-05-31T05:06:00.088Z,2.10
2018-05-31T05:08:27.543Z,2.20
2018-05-31T05:10:55.012Z,2.43
2018-05-31T05:13:22.479Z,2.40
2018-05-31T05:15:49.944Z,1.93
2018-05-31T05:18:17.492Z,2.10
2018-05-31T05:20:44.940Z,2.00
2018-05-31T05:23:12.404Z,1.80
2018-05-31T05:25:39.875Z,2.37
2018-05-31T05:28:07.330Z,1.80
2018-05-31T05:30:34.901Z,2.93
2018-05-31T05:33:02.362Z,2.53
2018-05-31T05:35:29.819Z,1.97
2018-05-31T05:37:57.303Z,2.37
2018-05-31T05:40:24.763Z,2.13
2018-05-31T05:42:52.244Z,2.40
2018-05-31T05:45:19.695Z,2.40
2018-05-31T05:47:47.152Z,2.50
2018-05-31T05:50:14.655Z,2.40
2018-05-31T05:52:42.091Z,2.37
2018-05-31T05:55:09.584Z,1.90
2018-05-31T05:57:37.052Z,3.13
2018-05-31T06:00:04.521Z,2.10
2018-05-31T06:02:31.999Z,2.73
2018-05-31T06:04:59.520Z,2.73
2018-05-31T06:07:27.015Z,2.27
2018-05-31T06:09:54.505Z,2.30
2018-05-31T06:12:21.939Z,2.77
2018-05-31T06:14:49.415Z,2.20
2018-05-31T06:17:16.869Z,3.20
2018-05-31T06:19:44.544Z,2.93
2018-05-31T06:22:11.951Z,2.00
2018-05-31T06:24:39.520Z,2.27
2018-05-31T06:27:06.968Z,2.60
2018-05-31T06:29:34.463Z,2.23
2018-05-31T06:32:02.145Z,2.60
2018-05-31T06:34:29.608Z,2.40
2018-05-31T06:36:57.059Z,2.30
2018-05-31T06:39:24.549Z,2.20
2018-05-31T06:41:52.007Z,2.83
2018-05-31T06:44:19.483Z,2.60
2018-05-31T06:46:46.972Z,2.40
2018-05-31T06:49:14.428Z,2.77
2018-05-31T06:51:41.891Z,2.30
2018-05-31T06:54:09.373Z,1.80
2018-05-31T06:56:36.847Z,2.80
2018-05-31T06:59:04.299Z,2.80
2018-05-31T07:01:31.748Z,2.30
2018-05-31T07:03:59.239Z,3.00
2018-05-31T07:06:26.683Z,5.73
2018-05-31T07:08:54.404Z,4.60
2018-05-31T07:11:21.859Z,2.97
2018-05-31T07:13:49.323Z,2.67
2018-05-31T07:16:16.812Z,2.77
2018-05-31T07:18:44.276Z,2.30
2018-05-31T07:21:11.778Z,2.40
2018-05-31T07:23:39.252Z,2.60
2018-05-31T07:26:06.695Z,2.17
2018-05-31T07:28:34.159Z,4.47
2018-05-31T07:31:01.608Z,3.20
2018-05-31T07:33:29.199Z,3.30
2018-05-31T07:35:56.675Z,2.80
2018-05-31T07:38:24.136Z,2.20
2018-05-31T07:40:51.600Z,3.07
2018-05-31T07:43:19.048Z,2.77
2018-05-31T07:45:46.783Z,3.03
2018-05-31T07:48:14.276Z,2.97
2018-05-31T07:50:41.830Z,3.30
2018-05-31T07:53:09.305Z,2.53
2018-05-31T07:55:36.767Z,2.93
2018-05-31T07:58:04.400Z,2.83
2018-05-31T08:00:31.845Z,2.20
2018-05-31T08:02:59.302Z,2.50
2018-05-31T08:05:26.772Z,3.40
2018-05-31T08:07:54.222Z,1.90
2018-05-31T08:10:21.677Z,2.57
2018-05-31T08:12:49.325Z,2.90
2018-05-31T08:15:16.775Z,2.10
2018-05-31T08:17:44.223Z,1.97
2018-05-31T08:20:11.692Z,2.37
2018-05-31T08:22:39.139Z,2.70
2018-05-31T08:25:06.780Z,2.63
2018-05-31T08:27:34.230Z,2.50
2018-05-31T08:30:01.680Z,2.10
2018-05-31T08:32:29.144Z,2.90
2018-05-31T08:34:56.631Z,2.30
2018-05-31T08:37:24.123Z,2.47
2018-05-31T08:39:51.568Z,2.90
2018-05-31T08:42:19.024Z,2.50
2018-05-31T08:44:46.496Z,2.80
2018-05-31T08:47:13.948Z,2.70
2018-05-31T08:49:41.592Z,2.80
2018-05-31T08:52:09.040Z,3.03
2018-05-31T08:54:36.479Z,2.97
2018-05-31T08:57:04.040Z,3.10
2018-05-31T08:59:31.500Z,3.03
2018-05-31T09:01:58.995Z,2.60
2018-05-31T09:04:26.456Z,2.57
2018-05-31T09:06:53.909Z,2.40
2018-05-31T09:09:21.401Z,3.53
2018-05-31T09:11:48.860Z,3.30
2018-05-31T09:14:16.336Z,2.77
2018-05-31T09:16:43.784Z,2.87
2018-05-31T09:19:11.236Z,3.17
2018-05-31T09:21:38.701Z,2.50
2018-05-31T09:24:06.181Z,2.43
2018-05-31T09:26:33.664Z,3.93
2018-05-31T09:29:01.125Z,3.40
2018-05-31T09:31:28.588Z,2.67
2018-05-31T09:33:56.059Z,3.90
2018-05-31T09:36:23.523Z,3.10
2018-05-31T09:38:51.171Z,3.97
2018-05-31T09:41:18.636Z,4.00
2018-05-31T09:43:46.092Z,3.67
2018-05-31T09:46:13.560Z,3.73
2018-05-31T09:48:41.011Z,2.90
2018-05-31T09:51:08.643Z,3.70
2018-05-31T09:53:36.104Z,3.80
2018-05-31T09:56:03.565Z,4.63
2018-05-31T09:58:31.051Z,2.90
2018-05-31T10:00:58.508Z,4.67
2018-05-31T10:03:26.180Z,4.17
2018-05-31T10:05:53.632Z,3.50
2018-05-31T10:08:21.174Z,3.53
2018-05-31T10:10:48.661Z,4.27
2018-05-31T10:13:16.112Z,3.73
2018-05-31T10:15:43.588Z,3.80
2018-05-31T10:18:11.036Z,5.20
2018-05-31T10:20:38.505Z,2.93
2018-05-31T10:23:05.997Z,3.93
2018-05-31T10:25:33.470Z,3.80
2018-05-31T10:28:01.199Z,4.93
2018-05-31T10:30:28.655Z,4.40
2018-05-31T10:32:56.100Z,4.77
2018-05-31T10:35:23.584Z,4.93
2018-05-31T10:37:51.039Z,4.20
2018-05-31T10:40:18.605Z,3.60
2018-05-31T10:42:46.065Z,4.00
2018-05-31T10:45:13.554Z,4.23
2018-05-31T10:47:41.057Z,4.33
2018-05-31T10:50:08.528Z,3.30
2018-05-31T10:52:36.212Z,5.30
2018-05-31T10:55:03.684Z,3.30
2018-05-31T10:57:31.135Z,5.23
2018-05-31T10:59:58.604Z,3.13
2018-05-31T11:02:26.048Z,3.80
2018-05-31T11:04:53.956Z,4.33
2018-05-31T11:07:21.412Z,3.87
2018-05-31T11:09:48.859Z,3.13
2018-05-31T11:12:16.323Z,3.67
2018-05-31T11:14:43.783Z,3.30
2018-05-31T11:17:11.396Z,3.50
2018-05-31T11:19:38.879Z,3.10
2018-05-31T11:22:06.327Z,3.23
2018-05-31T11:24:33.791Z,3.33
2018-05-31T11:27:01.260Z,3.33
2018-05-31T11:29:28.969Z,3.50
2018-05-31T11:31:56.420Z,3.13
2018-05-31T11:34:23.896Z,3.97
2018-05-31T11:36:51.359Z,4.00
2018-05-31T11:39:18.819Z,3.83
2018-05-31T11:41:46.288Z,3.27
2018-05-31T11:44:13.756Z,3.33
2018-05-31T11:46:41.228Z,3.50
2018-05-31T11:49:08.836Z,3.63
2018-05-31T11:51:36.288Z,3.27
2018-05-31T11:54:03.737Z,3.47
2018-05-31T11:56:31.209Z,3.00
2018-05-31T11:58:58.655Z,2.77
2018-05-31T12:01:26.163Z,3.63
2018-05-31T12:03:53.607Z,4.20
2018-05-31T12:06:21.057Z,3.60
2018-05-31T12:08:48.519Z,3.43
2018-05-31T12:11:15.997Z,3.23
2018-05-31T12:13:43.484Z,3.33
2018-05-31T12:16:10.942Z,3.40
2018-05-31T12:18:38.396Z,3.60
2018-05-31T12:21:05.868Z,4.10
2018-05-31T12:23:33.336Z,3.17
2018-05-31T12:26:00.942Z,3.73
2018-05-31T12:28:28.400Z,3.53
2018-05-31T12:30:55.856Z,3.70
2018-05-31T12:33:23.339Z,3.70
2018-05-31T12:35:50.794Z,2.83
2018-05-31T12:38:18.612Z,4.10
2018-05-31T12:40:46.063Z,3.40
2018-05-31T12:43:13.535Z,4.03
2018-05-31T12:45:41.021Z,2.83
2018-05-31T12:48:08.475Z,3.70
2018-05-31T12:50:35.957Z,3.23
2018-05-31T12:53:03.419Z,3.10
2018-05-31T12:55:30.868Z,3.40
2018-05-31T12:57:58.348Z,3.23
2018-05-31T13:00:25.796Z,3.13
2018-05-31T13:02:53.351Z,3.83
2018-05-31T13:05:20.796Z,3.37
2018-05-31T13:07:48.241Z,3.03
2018-05-31T13:10:15.728Z,3.17
2018-05-31T13:12:43.179Z,3.83
2018-05-31T13:15:10.890Z,3.13
2018-05-31T13:17:38.336Z,3.10
2018-05-31T13:20:05.810Z,3.07
2018-05-31T13:22:33.280Z,3.13
2018-05-31T13:25:00.740Z,2.60
2018-05-31T13:27:28.432Z,3.17
2018-05-31T13:29:55.878Z,3.30
2018-05-31T13:32:23.320Z,3.00
2018-05-31T13:34:50.784Z,3.57
2018-05-31T13:37:18.247Z,3.17
2018-05-31T13:39:45.716Z,3.00
2018-05-31T13:42:13.173Z,3.10
2018-05-31T13:44:40.611Z,2.80
2018-05-31T13:47:08.095Z,3.40
2018-05-31T13:49:35.564Z,2.27
2018-05-31T13:52:03.179Z,3.13
2018-05-31T13:54:30.630Z,3.13
2018-05-31T13:56:58.264Z,3.10
2018-05-31T13:59:25.726Z,2.80
2018-05-31T14:01:53.165Z,3.00
2018-05-31T14:04:20.835Z,2.83
2018-05-31T14:06:48.275Z,3.10
2018-05-31T14:09:15.720Z,4.77
2018-05-31T14:11:43.180Z,2.70
2018-05-31T14:14:10.642Z,4.40
2018-05-31T14:16:38.145Z,5.67
2018-05-31T14:19:05.612Z,7.70
2018-05-31T14:21:33.055Z,3.03
2018-05-31T14:24:00.520Z,4.43
2018-05-31T14:26:27.962Z,3.03
2018-05-31T14:28:55.429Z,4.50
2018-05-31T14:31:22.873Z,3.50
2018-05-31T14:33:50.320Z,8.17
2018-05-31T14:36:17.787Z,2.87
2018-05-31T14:38:45.252Z,4.03
2018-05-31T14:41:12.924Z,4.20
2018-05-31T14:43:40.364Z,3.57
2018-05-31T14:46:07.807Z,3.03
2018-05-31T14:48:35.290Z,4.23
2018-05-31T14:51:02.752Z,3.87
2018-05-31T14:53:30.581Z,3.27
2018-05-31T14:55:58.024Z,4.00
2018-05-31T14:58:25.472Z,4.00
2018-05-31T15:00:52.940Z,3.90
2018-05-31T15:03:20.391Z,3.17
2018-05-31T15:05:48.036Z,3.43
2018-05-31T15:08:15.483Z,3.97
2018-05-31T15:10:42.929Z,4.23
2018-05-31T15:13:11.137Z,3.83
2018-05-31T15:15:38.581Z,3.30
2018-05-31T15:18:06.323Z,3.30
2018-05-31T15:20:33.768Z,3.80
2018-05-31T15:23:01.232Z,3.33
2018-05-31T15:25:28.859Z,3.57
2018-05-31T15:27:56.304Z,3.70
2018-05-31T15:30:23.916Z,3.40
2018-05-31T15:32:51.376Z,4.13
2018-05-31T15:35:18.816Z,3.50
2018-05-31T15:37:46.280Z,3.70
2018-05-31T15:40:13.727Z,4.03
2018-05-31T15:42:41.215Z,4.20
2018-05-31T15:45:08.668Z,3.40
2018-05-31T15:47:36.108Z,3.70
2018-05-31T15:50:03.572Z,3.20
2018-05-31T15:52:31.016Z,3.03
2018-05-31T15:54:58.684Z,3.13
2018-05-31T15:57:26.135Z,3.43
2018-05-31T15:59:53.579Z,3.73
2018-05-31T16:02:21.045Z,4.13
2018-05-31T16:04:48.487Z,3.27
2018-05-31T16:07:16.076Z,4.30
2018-05-31T16:09:43.515Z,3.20
2018-05-31T16:12:10.960Z,3.90
2018-05-31T16:14:38.430Z,3.00
2018-05-31T16:17:05.884Z,3.23
2018-05-31T16:19:33.472Z,3.37
2018-05-31T16:22:00.931Z,3.37
2018-05-31T16:24:28.385Z,3.90
2018-05-31T16:26:55.855Z,3.40
2018-05-31T16:29:23.307Z,2.60
2018-05-31T16:31:50.789Z,2.40
2018-05-31T16:34:18.227Z,2.80
2018-05-31T16:36:45.684Z,3.03
2018-05-31T16:39:13.156Z,2.90
2018-05-31T16:41:40.620Z,2.97
2018-05-31T16:44:08.128Z,3.10
2018-05-31T16:46:35.571Z,3.47
2018-05-31T16:49:03.017Z,3.47
2018-05-31T16:51:30.484Z,3.17
2018-05-31T16:53:58.012Z,2.87
2018-05-31T16:56:25.504Z,2.67
2018-05-31T16:58:52.941Z,3.47
2018-05-31T17:01:20.388Z,3.67
2018-05-31T17:03:47.848Z,2.63
2018-05-31T17:06:15.291Z,3.40
2018-05-31T17:08:42.763Z,3.27
2018-05-31T17:11:10.212Z,2.93
2018-05-31T17:13:37.655Z,3.33
2018-05-31T17:16:05.118Z,2.90
2018-05-31T17:18:32.591Z,3.10
2018-05-31T17:21:00.412Z,3.20
2018-05-31T17:23:27.887Z,2.90
2018-05-31T17:25:55.333Z,3.47
2018-05-31T17:28:22.825Z,2.90
2018-05-31T17:30:50.275Z,2.93
2018-05-31T17:33:17.771Z,3.23
2018-05-31T17:35:45.221Z,3.20
2018-05-31T17:38:12.680Z,3.20
2018-05-31T17:40:40.145Z,3.70
2018-05-31T17:43:07.590Z,2.90
2018-05-31T17:45:35.070Z,2.57
2018-05-31T17:48:02.515Z,3.23
2018-05-31T17:50:29.956Z,3.13
2018-05-31T17:52:57.421Z,2.43
2018-05-31T17:55:24.881Z,3.00
2018-05-31T17:57:52.363Z,2.57
2018-05-31T18:00:19.804Z,3.50
2018-05-31T18:02:47.244Z,2.53
2018-05-31T18:05:14.708Z,3.23
2018-05-31T18:07:42.151Z,2.80
2018-05-31T18:10:09.620Z,3.57
2018-05-31T18:12:37.060Z,2.80
2018-05-31T18:15:04.500Z,3.10
2018-05-31T18:17:31.967Z,3.10
2018-05-31T18:19:59.408Z,3.37
2018-05-31T18:22:26.883Z,3.40
2018-05-31T18:24:54.332Z,2.60
2018-05-31T18:27:21.783Z,3.57
2018-05-31T18:29:49.252Z,3.30
2018-05-31T18:32:16.701Z,3.13
2018-05-31T18:34:44.619Z,3.60
2018-05-31T18:37:12.084Z,3.40
2018-05-31T18:39:39.525Z,3.33
2018-05-31T18:42:06.996Z,3.50
2018-05-31T18:44:34.445Z,2.90
2018-05-31T18:47:02.163Z,3.00
2018-05-31T18:49:29.621Z,3.70
2018-05-31T18:51:57.064Z,3.40
2018-05-31T18:54:24.530Z,3.50
2018-05-31T18:56:52.097Z,3.73
2018-05-31T18:59:19.774Z,3.80
2018-05-31T19:01:47.232Z,3.70
2018-05-31T19:04:14.699Z,3.73
2018-05-31T19:06:42.533Z,3.50
2018-05-31T19:09:15.717Z,3.30
2018-05-31T19:11:43.307Z,3.77
2018-05-31T19:14:10.753Z,4.30
2018-05-31T19:16:38.200Z,3.77
2018-05-31T19:19:11.360Z,4.03
2018-05-31T19:21:38.812Z,3.83
2018-05-31T19:24:11.987Z,3.20
2018-05-31T19:26:39.428Z,4.20
2018-05-31T19:29:06.889Z,3.80
2018-05-31T19:31:34.353Z,4.40
2018-05-31T19:34:01.796Z,4.03
2018-05-31T19:36:34.888Z,4.13
2018-05-31T19:39:02.349Z,4.03
2018-05-31T19:41:29.904Z,3.90
2018-05-31T19:44:02.933Z,4.40
2018-05-31T19:46:30.424Z,4.60
2018-05-31T19:48:57.872Z,4.23
2018-05-31T19:51:30.891Z,4.50
2018-05-31T19:53:58.359Z,4.20
2018-05-31T19:56:25.809Z,4.47
2018-05-31T19:58:59.091Z,4.47
2018-05-31T20:01:32.220Z,3.70
2018-05-31T20:03:59.764Z,4.33
2018-05-31T20:06:27.246Z,4.37
2018-05-31T20:08:54.779Z,4.87
2018-05-31T20:11:22.292Z,4.67
2018-05-31T20:16:31.011Z,5.20
2018-05-31T20:18:58.493Z,4.47
2018-05-31T20:21:26.360Z,4.73
2018-05-31T20:23:53.816Z,4.00
2018-05-31T20:26:21.273Z,4.40
2018-05-31T20:28:49.168Z,4.23
2018-05-31T20:31:16.621Z,5.23
2018-05-31T20:33:44.530Z,4.67
2018-05-31T20:36:11.981Z,4.30
2018-05-31T20:38:39.442Z,4.67
2018-05-31T20:41:06.936Z,4.07
2018-05-31T20:43:34.382Z,4.47
2018-05-31T20:46:01.877Z,6.10
2018-05-31T20:48:29.329Z,4.83
2018-05-31T20:50:56.779Z,5.00
2018-05-31T20:53:24.240Z,5.40
2018-05-31T20:55:51.728Z,5.37
2018-05-31T20:58:19.310Z,4.70
2018-05-31T21:00:46.775Z,5.03
2018-05-31T21:03:14.232Z,5.33
2018-05-31T21:05:41.708Z,6.63
2018-05-31T21:08:09.155Z,5.37
2018-05-31T21:10:36.753Z,5.17
2018-05-31T21:13:04.212Z,5.50
2018-05-31T21:15:31.663Z,5.07
2018-05-31T21:17:59.135Z,5.30
2018-05-31T21:20:26.593Z,4.50
2018-05-31T21:22:54.154Z,5.30
2018-05-31T21:25:21.527Z,5.23
2018-05-31T21:27:48.977Z,5.50
2018-05-31T21:30:16.447Z,6.23
2018-05-31T21:32:43.896Z,5.67
2018-05-31T21:35:11.547Z,6.37
2018-05-31T21:37:38.992Z,5.60
2018-05-31T21:40:06.436Z,5.50
2018-05-31T21:42:33.909Z,6.17
2018-05-31T21:45:01.413Z,6.87
2018-05-31T21:47:29.103Z,5.70
2018-05-31T21:49:56.547Z,7.60
2018-05-31T21:52:23.994Z,5.90
2018-05-31T21:54:51.460Z,7.90
2018-05-31T21:57:18.920Z,6.80
2018-05-31T21:59:46.556Z,5.90
2018-05-31T22:02:13.999Z,5.87
2018-05-31T22:04:41.444Z,6.47
2018-05-31T22:07:08.915Z,6.20
2018-05-31T22:09:36.367Z,6.40
2018-05-31T22:12:04.029Z,6.80
2018-05-31T22:14:31.479Z,7.00
2018-05-31T22:16:58.920Z,6.47
2018-05-31T22:19:26.380Z,6.20
2018-05-31T22:21:53.844Z,6.63
2018-05-31T22:24:21.571Z,6.67
2018-05-31T22:26:49.024Z,7.53
2018-05-31T22:29:16.467Z,6.93
2018-05-31T22:31:43.936Z,6.90
2018-05-31T22:34:11.380Z,7.37
2018-05-31T22:36:39.017Z,6.80
2018-05-31T22:39:06.416Z,6.00
2018-05-31T22:41:33.861Z,7.10
2018-05-31T22:44:01.373Z,7.40
2018-05-31T22:46:28.816Z,7.10
2018-05-31T22:48:56.460Z,8.27
2018-05-31T22:51:23.904Z,7.10
2018-05-31T22:53:51.344Z,7.70
2018-05-31T22:56:18.803Z,6.93
2018-05-31T22:58:46.254Z,6.03
2018-05-31T23:01:13.920Z,6.20
2018-05-31T23:03:41.363Z,7.97
2018-05-31T23:06:08.816Z,7.03
2018-05-31T23:08:42.208Z,7.93
2018-05-31T23:11:09.652Z,7.60
2018-05-31T23:13:37.399Z,8.13
2018-05-31T23:16:04.875Z,7.47
2018-05-31T23:18:32.324Z,8.20
2018-05-31T23:20:59.783Z,7.30
2018-05-31T23:23:27.236Z,7.47
2018-05-31T23:25:55.032Z,8.03
2018-05-31T23:28:22.476Z,6.83
2018-05-31T23:30:49.932Z,7.50
2018-05-31T23:33:17.392Z,7.43
2018-05-31T23:35:44.833Z,7.03
2018-05-31T23:38:12.508Z,7.43
2018-05-31T23:40:39.959Z,4.90
2018-05-31T23:43:07.404Z,3.90
2018-05-31T23:45:34.867Z,3.83
2018-05-31T23:48:02.324Z,3.83
2018-05-31T23:50:29.966Z,3.27
2018-05-31T23:52:57.405Z,3.17
2018-05-31T23:55:24.882Z,3.17
2018-05-31T23:57:52.339Z,1.60
